createdAt,value
2022-09-28T00:01:58.915Z,57.67
2022-09-28T00:04:25.590Z,58.65
2022-09-28T00:06:52.167Z,56.95
2022-09-28T00:09:18.782Z,62.22
2022-09-28T00:11:46.102Z,62.08
2022-09-28T00:14:13.429Z,64.47
2022-09-28T00:16:43.495Z,63.58
2022-09-28T00:19:11.849Z,68.43
2022-09-28T00:21:40.580Z,67.50
2022-09-28T00:24:22.942Z,72.35
2022-09-28T00:26:56.991Z,76.65
2022-09-28T00:29:32.762Z,84.63
2022-09-28T00:32:09.657Z,90.28
2022-09-28T00:34:43.164Z,96.40
2022-09-28T00:37:10.162Z,96.05
2022-09-28T00:39:38.416Z,103.18
2022-09-28T00:42:12.444Z,111.05
2022-09-28T00:44:46.587Z,115.88
2022-09-28T00:47:41.680Z,122.57
2022-09-28T00:50:11.243Z,121.93
2022-09-28T00:52:48.559Z,127.15
2022-09-28T00:55:18.976Z,130.80
2022-09-28T00:57:51.935Z,135.43
2022-09-28T01:00:19.147Z,138.80
2022-09-28T01:02:46.905Z,143.68
2022-09-28T01:05:18.386Z,138.50
2022-09-28T01:07:46.582Z,134.88
2022-09-28T01:10:14.223Z,140.98
2022-09-28T01:12:40.714Z,142.10
2022-09-28T01:15:07.610Z,143.05
2022-09-28T01:17:44.843Z,145.13
2022-09-28T01:20:33.903Z,150.10
2022-09-28T01:23:15.536Z,140.50
2022-09-28T01:25:48.074Z,149.30
2022-09-28T01:28:17.297Z,153.38
2022-09-28T01:31:05.560Z,157.73
2022-09-28T01:33:56.973Z,157.75
2022-09-28T01:36:55.283Z,153.57
2022-09-28T01:39:29.507Z,155.63
2022-09-28T01:42:00.709Z,161.13
2022-09-28T01:44:31.035Z,158.27
2022-09-28T01:47:04.274Z,162.05
2022-09-28T01:49:46.013Z,157.20
2022-09-28T01:52:25.159Z,151.15
2022-09-28T01:55:01.497Z,145.82
2022-09-28T01:58:10.940Z,141.07
2022-09-28T02:00:42.548Z,138.13
2022-09-28T02:03:16.346Z,143.23
2022-09-28T02:05:59.545Z,143.33
2022-09-28T02:08:34.820Z,141.05
2022-09-28T02:11:11.546Z,146.13
2022-09-28T02:13:43.090Z,152.75
2022-09-28T02:16:21.746Z,161.25
2022-09-28T02:18:48.283Z,155.25
2022-09-28T02:21:29.708Z,151.52
2022-09-28T02:24:01.069Z,143.40
2022-09-28T02:26:34.901Z,145.70
2022-09-28T02:29:01.516Z,138.15
2022-09-28T02:31:28.371Z,142.23
2022-09-28T02:33:57.682Z,119.35
2022-09-28T02:36:26.362Z,123.65
2022-09-28T02:38:53.672Z,122.03
2022-09-28T02:41:32.868Z,122.38
2022-09-28T02:44:05.997Z,107.78
2022-09-28T02:46:52.904Z,112.07
2022-09-28T02:49:47.014Z,95.88
2022-09-28T02:52:16.377Z,96.43
2022-09-28T02:55:04.586Z,95.88
2022-09-28T02:57:46.306Z,101.38
2022-09-28T03:00:19.935Z,103.13
2022-09-28T03:02:46.382Z,107.15
2022-09-28T03:05:21.060Z,100.85
2022-09-28T03:10:29.803Z,93.63
2022-09-28T03:12:57.616Z,100.90
2022-09-28T03:15:27.532Z,95.43
2022-09-28T03:17:54.607Z,90.18
2022-09-28T03:20:21.170Z,80.78
2022-09-28T03:23:06.048Z,83.68
2022-09-28T03:25:34.263Z,85.13
2022-09-28T03:28:00.966Z,85.28
2022-09-28T03:30:27.790Z,85.15
2022-09-28T03:33:03.563Z,87.45
2022-09-28T03:35:30.025Z,87.18
2022-09-28T03:37:57.187Z,85.40
2022-09-28T03:40:24.117Z,87.50
2022-09-28T03:42:50.659Z,84.75
2022-09-28T03:45:17.191Z,85.90
2022-09-28T03:47:47.071Z,87.38
2022-09-28T03:50:13.693Z,87.78
2022-09-28T03:52:40.316Z,88.80
2022-09-28T03:55:07.305Z,88.25
2022-09-28T03:57:33.768Z,86.30
2022-09-28T04:00:00.450Z,87.50
2022-09-28T04:02:27.041Z,86.07
2022-09-28T04:04:53.554Z,85.25
2022-09-28T04:07:20.051Z,84.25
2022-09-28T04:09:46.549Z,85.63
2022-09-28T04:12:13.010Z,82.40
2022-09-28T04:14:39.493Z,83.10
2022-09-28T04:17:07.259Z,84.18
2022-09-28T04:19:33.798Z,83.68
2022-09-28T04:22:01.943Z,84.00
2022-09-28T04:24:28.449Z,83.18
2022-09-28T04:27:14.903Z,82.40
2022-09-28T04:29:41.715Z,82.35
2022-09-28T04:32:08.264Z,83.53
2022-09-28T04:34:37.226Z,85.90
2022-09-28T04:37:05.288Z,87.93
2022-09-28T04:39:31.848Z,85.15
2022-09-28T04:41:58.310Z,85.03
2022-09-28T04:44:26.196Z,87.28
2022-09-28T04:46:55.191Z,87.85
2022-09-28T04:49:21.682Z,86.85
2022-09-28T04:51:48.150Z,84.50
2022-09-28T04:54:14.634Z,83.90
2022-09-28T04:56:41.785Z,86.15
2022-09-28T04:59:08.274Z,87.22
2022-09-28T05:01:34.809Z,88.93
2022-09-28T05:04:01.550Z,87.85
2022-09-28T05:06:30.649Z,88.80
2022-09-28T05:08:57.567Z,90.97
2022-09-28T05:11:24.206Z,89.65
2022-09-28T05:13:50.769Z,88.35
2022-09-28T05:16:17.589Z,87.30
2022-09-28T05:18:44.083Z,87.50
2022-09-28T05:21:12.771Z,89.78
2022-09-28T05:23:40.282Z,88.63
2022-09-28T05:26:07.390Z,83.18
2022-09-28T05:28:34.199Z,86.70
2022-09-28T05:31:02.339Z,85.60
2022-09-28T05:33:29.753Z,88.55
2022-09-28T05:36:00.925Z,87.00
2022-09-28T05:38:28.688Z,90.50
2022-09-28T05:40:55.845Z,94.75
2022-09-28T05:43:22.724Z,98.70
2022-09-28T05:45:54.276Z,106.32
2022-09-28T05:48:20.970Z,112.55
2022-09-28T05:50:52.359Z,119.03
2022-09-28T05:53:19.389Z,125.53
2022-09-28T05:55:45.992Z,135.27
2022-09-28T05:58:12.555Z,141.35
2022-09-28T06:00:39.423Z,144.90
2022-09-28T06:03:10.503Z,149.85
2022-09-28T06:05:39.351Z,153.55
2022-09-28T06:08:08.383Z,159.38
2022-09-28T06:10:35.310Z,160.88
2022-09-28T06:13:01.973Z,166.55
2022-09-28T06:15:31.070Z,171.63
2022-09-28T06:17:59.569Z,167.43
2022-09-28T06:20:27.639Z,133.95
2022-09-28T06:22:54.403Z,145.43
2022-09-28T06:25:22.657Z,161.13
2022-09-28T06:27:59.057Z,152.30
2022-09-28T06:30:27.269Z,121.75
2022-09-28T06:32:56.120Z,101.00
2022-09-28T06:35:25.480Z,90.78
2022-09-28T06:37:53.299Z,116.18
2022-09-28T06:40:21.464Z,126.10
2022-09-28T06:43:00.962Z,113.97
2022-09-28T06:45:29.654Z,120.30
2022-09-28T06:48:00.770Z,122.55
2022-09-28T06:50:40.540Z,117.35
2022-09-28T06:53:09.528Z,104.65
2022-09-28T06:55:39.066Z,100.38
2022-09-28T06:58:09.797Z,98.70
2022-09-28T07:00:38.125Z,99.18
2022-09-28T07:03:07.348Z,96.53
2022-09-28T07:05:36.894Z,97.85
2022-09-28T07:08:04.420Z,97.82
2022-09-28T07:10:32.460Z,95.85
2022-09-28T07:13:02.703Z,88.60
2022-09-28T07:15:29.806Z,88.18
2022-09-28T07:18:02.557Z,77.47
2022-09-28T07:20:30.695Z,79.82
2022-09-28T07:23:15.284Z,76.68
2022-09-28T07:25:49.608Z,70.35
2022-09-28T07:28:17.347Z,65.55
2022-09-28T07:30:47.429Z,61.17
2022-09-28T07:33:15.922Z,59.47
2022-09-28T07:35:50.757Z,57.55
2022-09-28T07:38:17.234Z,53.65
2022-09-28T07:41:02.342Z,47.75
2022-09-28T07:43:28.861Z,50.80
2022-09-28T07:45:55.788Z,49.38
2022-09-28T07:48:23.395Z,49.67
2022-09-28T07:50:57.370Z,40.80
2022-09-28T07:53:25.478Z,40.03
2022-09-28T07:55:57.221Z,35.70
2022-09-28T07:58:23.717Z,41.40
2022-09-28T08:00:51.125Z,91.05
2022-09-28T08:03:18.779Z,96.70
2022-09-28T08:05:46.954Z,101.68
2022-09-28T08:08:14.053Z,101.53
2022-09-28T08:10:46.791Z,150.10
2022-09-28T08:13:15.258Z,75.32
2022-09-28T08:15:42.613Z,115.07
2022-09-28T08:18:09.856Z,114.38
2022-09-28T08:20:56.748Z,168.90
2022-09-28T08:23:23.705Z,165.48
2022-09-28T08:25:54.119Z,149.35
2022-09-28T08:28:23.247Z,126.32
2022-09-28T08:30:50.262Z,157.38
2022-09-28T08:33:21.287Z,261.58
2022-09-28T08:35:48.323Z,221.90
2022-09-28T08:38:15.343Z,245.35
2022-09-28T08:40:58.862Z,269.10
2022-09-28T08:43:37.787Z,219.80
2022-09-28T08:46:04.433Z,232.70
2022-09-28T08:48:56.289Z,212.20
2022-09-28T08:51:33.842Z,192.40
2022-09-28T08:54:21.027Z,201.90
2022-09-28T08:56:52.455Z,186.43
2022-09-28T08:59:23.564Z,164.18
2022-09-28T09:02:03.617Z,177.65
2022-09-28T09:04:32.880Z,142.60
2022-09-28T09:07:19.730Z,138.50
2022-09-28T09:10:01.144Z,83.40
2022-09-28T09:12:36.937Z,65.55
2022-09-28T09:15:17.478Z,89.50
2022-09-28T09:18:08.967Z,75.10
2022-09-28T09:20:50.461Z,79.63
2022-09-28T09:23:28.400Z,64.38
2022-09-28T09:26:03.634Z,64.28
2022-09-28T09:29:01.224Z,49.85
2022-09-28T09:31:39.906Z,51.38
2022-09-28T09:34:09.369Z,51.08
2022-09-28T09:36:38.769Z,45.20
2022-09-28T09:39:17.485Z,48.35
2022-09-28T09:41:46.870Z,52.80
2022-09-28T09:44:19.384Z,54.67
2022-09-28T09:46:49.644Z,54.47
2022-09-28T09:49:24.796Z,60.92
2022-09-28T09:52:18.701Z,60.33
2022-09-28T09:54:58.575Z,62.00
2022-09-28T09:57:54.494Z,65.90
2022-09-28T10:00:21.918Z,67.93
2022-09-28T10:02:49.752Z,58.25
2022-09-28T10:05:29.217Z,45.63
2022-09-28T10:07:58.428Z,38.85
2022-09-28T10:10:29.581Z,35.50
2022-09-28T10:12:56.816Z,35.72
2022-09-28T10:15:28.434Z,33.30
2022-09-28T10:17:58.703Z,35.55
2022-09-28T10:20:25.666Z,36.75
2022-09-28T10:22:53.660Z,32.95
2022-09-28T10:25:20.427Z,41.08
2022-09-28T10:27:49.592Z,42.53
2022-09-28T10:30:20.266Z,45.78
2022-09-28T10:32:48.948Z,43.70
2022-09-28T10:35:18.604Z,50.03
2022-09-28T10:37:56.818Z,80.32
2022-09-28T10:40:46.446Z,88.38
2022-09-28T10:43:26.287Z,82.20
2022-09-28T10:46:13.575Z,67.88
2022-09-28T10:48:51.781Z,61.60
2022-09-28T10:51:18.319Z,93.82
2022-09-28T10:54:02.628Z,82.07
2022-09-28T10:56:35.858Z,96.82
2022-09-28T10:59:02.612Z,93.95
2022-09-28T11:01:34.421Z,90.82
2022-09-28T11:04:04.137Z,89.63
2022-09-28T11:06:36.787Z,115.30
2022-09-28T11:09:07.462Z,113.97
2022-09-28T11:11:42.095Z,112.40
2022-09-28T11:14:23.116Z,110.85
2022-09-28T11:17:26.401Z,116.85
2022-09-28T11:19:54.249Z,126.72
2022-09-28T11:22:51.734Z,126.57
2022-09-28T11:25:32.908Z,121.65
2022-09-28T11:28:04.493Z,97.55
2022-09-28T11:30:34.154Z,90.18
2022-09-28T11:33:05.795Z,62.45
2022-09-28T11:35:44.505Z,52.00
2022-09-28T11:38:36.079Z,28.30
2022-09-28T11:41:08.825Z,28.02
2022-09-28T11:43:47.530Z,25.65
2022-09-28T11:46:37.181Z,25.15
2022-09-28T11:49:16.108Z,20.85
2022-09-28T11:51:46.063Z,17.10
2022-09-28T11:54:28.960Z,17.52
2022-09-28T11:56:59.867Z,18.63
2022-09-28T11:59:32.758Z,19.25
2022-09-28T12:02:29.963Z,18.48
2022-09-28T12:05:14.903Z,17.33
2022-09-28T12:07:50.543Z,17.88
2022-09-28T12:10:20.160Z,19.48
2022-09-28T12:13:00.122Z,20.27
2022-09-28T12:16:12.956Z,21.25
2022-09-28T12:18:49.157Z,23.05
2022-09-28T12:21:24.712Z,23.10
2022-09-28T12:24:06.566Z,17.98
2022-09-28T12:26:38.814Z,22.40
2022-09-28T12:29:31.326Z,22.42
2022-09-28T12:32:26.220Z,23.23
2022-09-28T12:34:53.943Z,17.85
2022-09-28T12:37:43.597Z,17.10
2022-09-28T12:40:25.825Z,17.13
2022-09-28T12:43:01.327Z,18.25
2022-09-28T12:45:27.834Z,16.23
2022-09-28T12:48:26.170Z,17.15
2022-09-28T12:51:18.483Z,16.30
2022-09-28T12:54:12.791Z,15.40
2022-09-28T12:59:35.266Z,15.30
2022-09-28T13:02:08.114Z,16.83
2022-09-28T13:04:49.939Z,15.37
2022-09-28T13:07:21.096Z,21.75
2022-09-28T13:10:07.499Z,21.25
2022-09-28T13:12:45.568Z,19.25
2022-09-28T13:15:45.487Z,28.15
2022-09-28T13:18:23.419Z,27.27
2022-09-28T13:21:13.004Z,29.98
2022-09-28T13:23:43.198Z,35.78
2022-09-28T13:26:19.659Z,35.10
2022-09-28T13:28:48.154Z,36.20
2022-09-28T13:31:20.472Z,35.33
2022-09-28T13:33:47.975Z,34.65
2022-09-28T13:36:26.609Z,34.28
2022-09-28T13:38:54.749Z,42.67
2022-09-28T13:41:47.413Z,34.78
2022-09-28T13:44:13.938Z,35.92
2022-09-28T13:47:21.345Z,30.10
2022-09-28T13:50:15.780Z,19.52
2022-09-28T13:55:55.656Z,14.95
2022-09-28T13:58:30.094Z,15.35
2022-09-28T14:00:59.938Z,17.42
2022-09-28T14:03:28.345Z,16.95
2022-09-28T14:06:27.120Z,19.23
2022-09-28T14:09:15.982Z,22.90
2022-09-28T14:11:57.884Z,25.52
2022-09-28T14:14:31.137Z,22.63
2022-09-28T14:17:30.294Z,20.83
2022-09-28T14:20:03.719Z,16.58
2022-09-28T14:23:07.706Z,20.40
2022-09-28T14:25:41.057Z,17.67
2022-09-28T14:28:34.000Z,20.63
2022-09-28T14:31:08.589Z,23.00
2022-09-28T14:33:35.779Z,29.48
2022-09-28T14:36:07.607Z,30.50
2022-09-28T14:39:08.691Z,33.47
2022-09-28T14:41:38.459Z,34.50
2022-09-28T14:44:11.855Z,33.85
2022-09-28T14:46:46.646Z,32.45
2022-09-28T14:49:23.341Z,33.88
2022-09-28T14:51:55.937Z,33.55
2022-09-28T14:54:24.841Z,35.40
2022-09-28T14:56:54.424Z,33.63
2022-09-28T14:59:26.018Z,33.38
2022-09-28T15:01:57.958Z,31.35
2022-09-28T15:04:28.706Z,28.70
2022-09-28T15:06:55.551Z,23.40
2022-09-28T15:09:38.457Z,23.58
2022-09-28T15:12:12.190Z,20.27
2022-09-28T15:14:47.884Z,18.75
2022-09-28T15:17:21.501Z,17.60
2022-09-28T15:19:57.246Z,16.70
2022-09-28T15:22:24.300Z,15.95
2022-09-28T15:25:02.524Z,16.55
2022-09-28T15:27:38.889Z,16.27
2022-09-28T15:30:25.462Z,16.92
2022-09-28T15:32:56.584Z,17.42
2022-09-28T15:35:26.342Z,19.35
2022-09-28T15:37:54.926Z,19.45
2022-09-28T15:40:35.011Z,19.73
2022-09-28T15:43:03.775Z,24.55
2022-09-28T15:45:40.626Z,23.63
2022-09-28T15:48:18.440Z,24.35
2022-09-28T15:51:10.206Z,23.27
2022-09-28T15:53:43.013Z,25.27
2022-09-28T15:56:11.691Z,26.55
2022-09-28T15:58:39.487Z,27.92
2022-09-28T16:01:36.026Z,29.90
2022-09-28T16:04:31.919Z,37.17
2022-09-28T16:07:05.461Z,42.25
2022-09-28T16:09:34.575Z,46.47
2022-09-28T16:12:11.504Z,47.67
2022-09-28T16:14:38.047Z,57.03
2022-09-28T16:17:04.575Z,59.20
2022-09-28T16:19:37.474Z,69.40
2022-09-28T16:22:07.425Z,66.60
2022-09-28T16:24:37.339Z,67.45
2022-09-28T16:27:28.732Z,77.10
2022-09-28T16:30:21.671Z,75.50
2022-09-28T16:33:43.758Z,77.43
2022-09-28T16:36:17.241Z,77.55
2022-09-28T16:38:47.528Z,79.85
2022-09-28T16:41:27.058Z,77.93
2022-09-28T16:43:59.241Z,76.13
2022-09-28T16:46:32.554Z,74.70
2022-09-28T16:49:00.851Z,66.50
2022-09-28T16:51:27.850Z,66.18
2022-09-28T16:54:12.975Z,65.03
2022-09-28T16:56:39.466Z,61.60
2022-09-28T16:59:06.017Z,63.35
2022-09-28T17:01:32.978Z,60.78
2022-09-28T17:03:59.594Z,55.15
2022-09-28T17:06:27.275Z,56.15
2022-09-28T17:08:58.737Z,51.22
2022-09-28T17:11:25.450Z,48.15
2022-09-28T17:13:53.585Z,48.10
2022-09-28T17:16:32.510Z,50.03
2022-09-28T17:19:21.417Z,51.60
2022-09-28T17:21:48.158Z,64.10
2022-09-28T17:24:14.664Z,56.13
2022-09-28T17:26:43.806Z,52.22
2022-09-28T17:29:14.616Z,62.08
2022-09-28T17:31:45.614Z,55.95
2022-09-28T17:34:15.197Z,56.70
2022-09-28T17:36:42.652Z,63.15
2022-09-28T17:39:16.443Z,79.18
2022-09-28T17:41:43.348Z,79.05
2022-09-28T17:44:10.348Z,97.35
2022-09-28T17:46:40.632Z,117.40
2022-09-28T17:49:11.596Z,143.90
2022-09-28T17:51:38.399Z,187.32
2022-09-28T17:54:06.885Z,179.45
2022-09-28T17:56:34.374Z,148.95
2022-09-28T17:59:04.862Z,162.55
2022-09-28T18:01:34.361Z,172.38
2022-09-28T18:04:03.450Z,179.90
2022-09-28T18:06:30.196Z,168.63
2022-09-28T18:08:56.771Z,189.07
2022-09-28T18:11:23.587Z,184.65
2022-09-28T18:13:50.151Z,184.48
2022-09-28T18:16:17.569Z,181.65
2022-09-28T18:18:44.117Z,158.55
2022-09-28T18:21:10.736Z,150.32
2022-09-28T18:23:38.359Z,142.77
2022-09-28T18:26:11.020Z,116.43
2022-09-28T18:28:37.558Z,126.30
2022-09-28T18:31:08.949Z,106.38
2022-09-28T18:33:36.604Z,94.97
2022-09-28T18:36:05.354Z,83.95
2022-09-28T18:38:34.607Z,56.75
2022-09-28T18:41:14.443Z,47.28
2022-09-28T18:43:42.439Z,47.45
2022-09-28T18:46:10.571Z,48.10
2022-09-28T18:48:38.252Z,46.25
2022-09-28T18:51:08.753Z,46.10
2022-09-28T18:53:35.411Z,45.75
2022-09-28T18:56:07.941Z,44.97
2022-09-28T18:58:36.468Z,47.13
2022-09-28T19:04:03.922Z,46.78
2022-09-28T19:06:31.807Z,52.08
2022-09-28T19:08:58.680Z,54.17
2022-09-28T19:11:25.847Z,54.70
2022-09-28T19:13:54.517Z,54.55
2022-09-28T19:16:26.218Z,57.63
2022-09-28T19:18:53.649Z,55.88
2022-09-28T19:21:21.047Z,65.68
2022-09-28T19:23:49.859Z,70.85
2022-09-28T19:26:22.292Z,75.55
2022-09-28T19:28:49.220Z,107.22
2022-09-28T19:31:16.696Z,119.38
2022-09-28T19:33:46.408Z,120.68
2022-09-28T19:36:18.866Z,116.78
2022-09-28T19:38:46.254Z,131.00
2022-09-28T19:41:39.142Z,128.43
2022-09-28T19:44:19.792Z,156.68
2022-09-28T19:46:46.472Z,172.25
2022-09-28T19:49:19.388Z,191.38
2022-09-28T19:52:11.696Z,241.48
2022-09-28T19:54:38.172Z,269.13
2022-09-28T19:57:08.770Z,309.27
2022-09-28T19:59:37.675Z,312.85
2022-09-28T20:02:07.432Z,348.08
2022-09-28T20:04:33.993Z,348.45
2022-09-28T20:07:00.758Z,363.40
2022-09-28T20:09:27.286Z,377.83
2022-09-28T20:11:53.846Z,365.73
2022-09-28T20:14:22.445Z,373.80
2022-09-28T20:16:51.127Z,381.92
2022-09-28T20:19:19.476Z,368.35
2022-09-28T20:21:48.072Z,389.25
2022-09-28T20:24:16.207Z,347.00
2022-09-28T20:26:43.382Z,348.17
2022-09-28T20:29:10.637Z,335.90
2022-09-28T20:31:37.938Z,326.60
2022-09-28T20:34:05.607Z,311.92
2022-09-28T20:36:32.603Z,305.42
2022-09-28T20:39:02.952Z,281.58
2022-09-28T20:41:36.619Z,292.65
2022-09-28T20:44:06.369Z,286.00
2022-09-28T20:46:34.798Z,282.45
2022-09-28T20:49:01.656Z,257.92
2022-09-28T20:51:28.238Z,279.30
2022-09-28T20:53:56.373Z,276.50
2022-09-28T20:56:23.831Z,252.70
2022-09-28T20:58:51.128Z,252.60
2022-09-28T21:01:26.429Z,239.25
2022-09-28T21:03:55.143Z,227.00
2022-09-28T21:06:23.910Z,213.38
2022-09-28T21:08:50.644Z,219.63
2022-09-28T21:11:19.440Z,196.60
2022-09-28T21:13:46.234Z,204.07
2022-09-28T21:16:15.575Z,206.13
2022-09-28T21:18:42.469Z,206.00
2022-09-28T21:21:14.403Z,205.35
2022-09-28T21:23:41.005Z,210.50
2022-09-28T21:26:09.934Z,208.20
2022-09-28T21:28:37.475Z,195.02
2022-09-28T21:31:10.321Z,198.57
2022-09-28T21:33:37.239Z,186.90
2022-09-28T21:36:06.314Z,173.73
2022-09-28T21:38:33.264Z,161.98
2022-09-28T21:41:00.518Z,161.00
2022-09-28T21:43:28.500Z,149.48
2022-09-28T21:45:56.468Z,137.30
2022-09-28T21:48:24.604Z,139.80
2022-09-28T21:51:13.274Z,133.68
2022-09-28T21:53:39.786Z,125.03
2022-09-28T21:56:09.474Z,127.07
2022-09-28T21:58:37.025Z,128.73
2022-09-28T22:01:06.995Z,126.70
2022-09-28T22:03:35.559Z,124.38
2022-09-28T22:06:06.071Z,125.13
2022-09-28T22:08:33.651Z,124.90
2022-09-28T22:11:17.931Z,123.57
2022-09-28T22:13:50.382Z,120.20
2022-09-28T22:16:20.399Z,118.07
2022-09-28T22:18:47.831Z,130.75
2022-09-28T22:21:17.844Z,126.07
2022-09-28T22:23:45.017Z,129.63
2022-09-28T22:26:18.880Z,129.93
2022-09-28T22:28:47.852Z,125.30
2022-09-28T22:31:15.399Z,125.45
2022-09-28T22:33:41.982Z,130.38
2022-09-28T22:36:08.507Z,130.38
2022-09-28T22:38:35.371Z,132.90
2022-09-28T22:41:05.149Z,133.55
2022-09-28T22:43:33.182Z,128.40
2022-09-28T22:46:07.697Z,135.63
2022-09-28T22:51:02.571Z,102.70
2022-09-28T22:53:29.894Z,120.32
2022-09-28T22:56:06.072Z,122.57
2022-09-28T22:58:34.184Z,127.72
2022-09-28T23:01:11.146Z,124.68
2022-09-28T23:03:42.216Z,123.03
2022-09-28T23:06:10.220Z,123.15
2022-09-28T23:08:36.877Z,123.88
2022-09-28T23:11:03.838Z,126.57
2022-09-28T23:13:31.130Z,123.47
2022-09-28T23:16:03.355Z,115.20
2022-09-28T23:18:32.630Z,124.05
2022-09-28T23:21:01.920Z,119.00
2022-09-28T23:23:29.085Z,113.28
2022-09-28T23:25:56.142Z,111.32
2022-09-28T23:28:24.782Z,116.40
2022-09-28T23:30:52.077Z,117.30
2022-09-28T23:33:20.358Z,119.22
2022-09-28T23:35:47.248Z,116.03
2022-09-28T23:38:17.987Z,113.57
2022-09-28T23:40:46.470Z,115.22
2022-09-28T23:43:13.559Z,111.40
2022-09-28T23:45:42.245Z,109.68
2022-09-28T23:48:09.226Z,108.22
2022-09-28T23:50:35.749Z,108.72
2022-09-28T23:53:02.234Z,105.47
2022-09-28T23:55:29.135Z,110.07
2022-09-28T23:57:56.689Z,109.72
